createdAt,value
2022-09-25T00:00:00.837Z,14.40
2022-09-25T00:02:54.499Z,13.60
2022-09-25T00:05:28.038Z,14.60
2022-09-25T00:08:01.834Z,15.30
2022-09-25T00:10:41.905Z,15.40
2022-09-25T00:13:15.859Z,14.10
2022-09-25T00:15:55.296Z,13.90
2022-09-25T00:18:49.300Z,13.90
2022-09-25T00:21:23.456Z,14.30
2022-09-25T00:23:56.669Z,13.60
2022-09-25T00:26:31.340Z,13.60
2022-09-25T00:29:05.627Z,13.40
2022-09-25T00:31:39.116Z,13.20
2022-09-25T00:34:13.399Z,15.00
2022-09-25T00:36:47.198Z,14.00
2022-09-25T00:39:20.653Z,14.40
2022-09-25T00:41:54.427Z,15.80
2022-09-25T00:44:57.930Z,15.60
2022-09-25T00:47:53.864Z,14.50
2022-09-25T00:50:32.933Z,16.00
2022-09-25T00:53:12.632Z,16.20
2022-09-25T00:55:47.865Z,16.10
2022-09-25T00:58:26.394Z,15.40
2022-09-25T01:01:00.588Z,15.40
2022-09-25T01:03:34.469Z,16.30
2022-09-25T01:06:12.417Z,16.60
2022-09-25T01:08:47.704Z,17.20
2022-09-25T01:11:21.598Z,16.40
2022-09-25T01:13:58.423Z,16.80
2022-09-25T01:16:39.835Z,16.50
2022-09-25T01:19:29.466Z,16.90
2022-09-25T01:22:13.108Z,17.00
2022-09-25T01:24:59.743Z,17.80
2022-09-25T01:27:55.213Z,15.60
2022-09-25T01:30:43.983Z,16.10
2022-09-25T01:33:25.550Z,16.30
2022-09-25T01:36:04.200Z,15.90
2022-09-25T01:38:43.707Z,16.60
2022-09-25T01:41:23.263Z,17.20
2022-09-25T01:44:02.102Z,17.70
2022-09-25T01:46:42.106Z,16.40
2022-09-25T01:49:20.715Z,16.40
2022-09-25T01:51:58.016Z,17.80
2022-09-25T01:54:36.661Z,17.60
2022-09-25T01:59:51.585Z,17.00
2022-09-25T02:02:28.686Z,17.40
2022-09-25T02:05:06.763Z,17.30
2022-09-25T02:07:46.279Z,17.70
2022-09-25T02:10:23.972Z,17.90
2022-09-25T02:13:05.263Z,17.30
2022-09-25T02:15:42.645Z,16.40
2022-09-25T02:18:37.100Z,17.90
2022-09-25T02:21:19.916Z,17.60
2022-09-25T02:24:01.778Z,18.60
2022-09-25T02:26:37.958Z,16.90
2022-09-25T02:29:12.089Z,17.20
2022-09-25T02:31:49.842Z,17.80
2022-09-25T02:34:23.625Z,17.60
2022-09-25T02:36:57.152Z,18.30
2022-09-25T02:39:32.657Z,18.10
2022-09-25T02:42:21.945Z,18.70
2022-09-25T02:45:09.028Z,17.60
2022-09-25T02:47:53.678Z,17.40
2022-09-25T02:50:30.740Z,19.00
2022-09-25T02:53:09.398Z,17.90
2022-09-25T02:58:20.899Z,18.10
2022-09-25T03:00:56.894Z,18.40
2022-09-25T03:03:32.949Z,16.40
2022-09-25T03:06:08.439Z,17.80
2022-09-25T03:08:49.564Z,17.60
2022-09-25T03:11:24.514Z,17.20
2022-09-25T03:14:02.001Z,18.20
2022-09-25T03:16:43.548Z,17.90
2022-09-25T03:19:21.467Z,18.80
2022-09-25T03:21:54.738Z,18.10
2022-09-25T03:24:28.219Z,18.60
2022-09-25T03:27:01.823Z,20.00
2022-09-25T03:29:34.910Z,18.60
2022-09-25T03:32:08.604Z,17.00
2022-09-25T03:34:42.159Z,17.30
2022-09-25T03:37:15.866Z,17.20
2022-09-25T03:39:49.779Z,18.50
2022-09-25T03:42:26.808Z,19.00
2022-09-25T03:45:00.603Z,19.20
2022-09-25T03:47:34.172Z,17.30
2022-09-25T03:50:09.619Z,17.30
2022-09-25T03:52:42.861Z,18.40
2022-09-25T03:55:16.580Z,18.60
2022-09-25T03:57:50.744Z,17.70
2022-09-25T04:00:24.352Z,17.10
2022-09-25T04:02:59.705Z,16.80
2022-09-25T04:05:33.016Z,18.00
2022-09-25T04:08:06.826Z,17.30
2022-09-25T04:10:40.747Z,17.40
2022-09-25T04:13:14.589Z,17.90
2022-09-25T04:15:47.706Z,18.60
2022-09-25T04:18:21.362Z,18.80
2022-09-25T04:20:54.548Z,18.80
2022-09-25T04:23:27.971Z,19.60
2022-09-25T04:26:01.617Z,19.00
2022-09-25T04:28:36.173Z,18.90
2022-09-25T04:31:09.845Z,18.40
2022-09-25T04:33:49.498Z,18.70
2022-09-25T04:36:23.306Z,17.90
2022-09-25T04:38:56.793Z,19.40
2022-09-25T04:41:31.453Z,18.40
2022-09-25T04:44:07.798Z,18.70
2022-09-25T04:46:41.257Z,19.60
2022-09-25T04:49:17.679Z,18.20
2022-09-25T04:51:51.346Z,18.90
2022-09-25T04:54:25.367Z,20.40
2022-09-25T04:56:58.700Z,20.20
2022-09-25T04:59:35.214Z,19.10
2022-09-25T05:02:09.030Z,18.90
2022-09-25T05:04:42.556Z,18.20
2022-09-25T05:07:16.259Z,18.10
2022-09-25T05:09:50.425Z,19.40
2022-09-25T05:12:24.052Z,18.40
2022-09-25T05:14:57.384Z,18.80
2022-09-25T05:17:41.167Z,19.60
2022-09-25T05:20:14.494Z,18.40
2022-09-25T05:22:48.273Z,18.70
2022-09-25T05:25:23.704Z,18.50
2022-09-25T05:27:59.159Z,18.20
2022-09-25T05:30:34.186Z,18.30
2022-09-25T05:33:08.034Z,18.00
2022-09-25T05:35:41.861Z,16.80
2022-09-25T05:38:15.094Z,18.50
2022-09-25T05:40:48.384Z,18.50
2022-09-25T05:43:22.012Z,18.80
2022-09-25T05:45:58.938Z,18.50
2022-09-25T05:48:32.599Z,18.00
2022-09-25T05:51:05.914Z,18.80
2022-09-25T05:53:39.941Z,18.70
2022-09-25T05:56:14.159Z,19.10
2022-09-25T05:58:49.563Z,18.60
2022-09-25T06:01:23.324Z,19.30
2022-09-25T06:03:56.374Z,18.50
2022-09-25T06:06:32.054Z,16.80
2022-09-25T06:09:05.309Z,18.50
2022-09-25T06:11:38.484Z,17.30
2022-09-25T06:14:12.757Z,18.40
2022-09-25T06:16:50.230Z,18.20
2022-09-25T06:19:23.859Z,18.90
2022-09-25T06:21:57.944Z,18.70
2022-09-25T06:24:31.587Z,18.00
2022-09-25T06:27:06.002Z,18.40
2022-09-25T06:29:40.195Z,17.90
2022-09-25T06:32:13.430Z,18.40
2022-09-25T06:34:47.378Z,17.80
2022-09-25T06:37:20.618Z,17.70
2022-09-25T06:39:54.494Z,17.60
2022-09-25T06:42:27.864Z,18.70
2022-09-25T06:45:01.398Z,16.80
2022-09-25T06:47:35.147Z,18.30
2022-09-25T06:50:19.112Z,18.30
2022-09-25T06:52:52.474Z,19.60
2022-09-25T06:55:26.630Z,18.40
2022-09-25T06:58:03.281Z,17.30
2022-09-25T07:00:36.904Z,17.80
2022-09-25T07:03:28.228Z,17.90
2022-09-25T07:06:03.201Z,18.10
2022-09-25T07:08:38.396Z,17.90
2022-09-25T07:11:15.796Z,17.60
2022-09-25T07:13:53.649Z,17.10
2022-09-25T07:16:28.514Z,15.70
2022-09-25T07:19:05.011Z,17.80
2022-09-25T07:21:39.469Z,17.10
2022-09-25T07:24:13.957Z,17.00
2022-09-25T07:26:47.563Z,16.10
2022-09-25T07:29:21.218Z,16.80
2022-09-25T07:31:54.590Z,16.90
2022-09-25T07:34:28.100Z,16.20
2022-09-25T07:37:01.306Z,15.90
2022-09-25T07:39:34.774Z,16.30
2022-09-25T07:42:09.042Z,15.90
2022-09-25T07:44:48.735Z,15.00
2022-09-25T07:47:22.644Z,16.70
2022-09-25T07:49:56.596Z,16.20
2022-09-25T07:52:30.383Z,16.40
2022-09-25T07:55:03.697Z,14.50
2022-09-25T07:57:38.493Z,14.50
2022-09-25T08:00:14.773Z,15.30
2022-09-25T08:02:59.462Z,15.30
2022-09-25T08:05:35.760Z,15.70
2022-09-25T08:08:11.792Z,16.10
2022-09-25T08:10:45.514Z,15.70
2022-09-25T08:13:21.320Z,15.50
2022-09-25T08:15:57.966Z,14.90
2022-09-25T08:18:31.632Z,16.30
2022-09-25T08:21:06.618Z,15.90
2022-09-25T08:23:44.036Z,16.90
2022-09-25T08:26:21.207Z,16.60
2022-09-25T08:28:55.541Z,16.50
2022-09-25T08:31:29.512Z,17.20
2022-09-25T08:34:21.507Z,15.00
2022-09-25T08:36:57.985Z,16.10
2022-09-25T08:39:31.393Z,16.00
2022-09-25T08:42:06.424Z,17.00
2022-09-25T08:45:02.505Z,15.80
2022-09-25T08:47:56.449Z,16.70
2022-09-25T08:50:31.269Z,16.20
2022-09-25T08:53:10.444Z,16.50
2022-09-25T08:56:02.545Z,15.80
2022-09-25T08:58:43.039Z,15.00
2022-09-25T09:01:20.366Z,13.90
2022-09-25T09:06:31.247Z,14.40
2022-09-25T09:09:12.775Z,13.40
2022-09-25T09:11:51.777Z,12.70
2022-09-25T09:14:31.072Z,12.50
2022-09-25T09:17:09.187Z,11.70
2022-09-25T09:22:28.119Z,11.90
2022-09-25T09:25:12.033Z,12.30
2022-09-25T09:28:03.916Z,11.80
2022-09-25T09:30:46.908Z,12.60
2022-09-25T09:33:39.550Z,11.80
2022-09-25T09:36:21.762Z,11.90
2022-09-25T09:39:03.901Z,12.30
2022-09-25T09:41:51.205Z,11.50
2022-09-25T09:44:35.597Z,11.80
2022-09-25T09:47:22.957Z,11.90
2022-09-25T09:50:01.593Z,12.20
2022-09-25T09:55:22.763Z,9.50
2022-09-25T09:58:08.926Z,11.00
2022-09-25T10:00:42.953Z,11.50
2022-09-25T10:03:22.608Z,11.10
2022-09-25T10:05:59.362Z,11.00
2022-09-25T10:08:36.134Z,10.50
2022-09-25T10:11:16.517Z,11.90
2022-09-25T10:13:52.929Z,11.10
2022-09-25T10:16:27.967Z,11.50
2022-09-25T10:19:07.394Z,11.60
2022-09-25T10:21:44.956Z,12.20
2022-09-25T10:24:55.764Z,11.70
2022-09-25T10:27:36.247Z,9.80
2022-09-25T10:30:22.345Z,11.90
2022-09-25T10:33:10.049Z,10.90
2022-09-25T10:35:49.003Z,9.80
2022-09-25T10:38:48.660Z,10.70
2022-09-25T10:41:22.955Z,10.60
2022-09-25T10:44:02.412Z,8.50
2022-09-25T10:47:06.346Z,7.50
2022-09-25T10:50:07.037Z,7.50
2022-09-25T10:52:52.592Z,7.20
2022-09-25T10:55:30.452Z,8.50
2022-09-25T10:58:11.099Z,7.30
2022-09-25T11:00:54.722Z,6.50
2022-09-25T11:03:32.835Z,5.20
2022-09-25T11:06:17.942Z,5.90
2022-09-25T11:08:57.571Z,5.70
2022-09-25T11:11:33.422Z,8.40
2022-09-25T11:14:09.873Z,8.20
2022-09-25T11:16:49.116Z,8.00
2022-09-25T11:19:29.186Z,8.90
2022-09-25T11:22:19.403Z,9.50
2022-09-25T11:25:08.610Z,8.40
2022-09-25T11:27:52.868Z,8.10
2022-09-25T11:30:32.254Z,8.30
2022-09-25T11:33:24.929Z,7.10
2022-09-25T11:36:04.570Z,8.30
2022-09-25T11:39:05.740Z,7.10
2022-09-25T11:41:45.687Z,6.80
2022-09-25T11:44:32.427Z,6.30
2022-09-25T11:47:16.321Z,6.10
2022-09-25T11:49:53.635Z,6.40
2022-09-25T11:52:48.059Z,6.70
2022-09-25T11:55:47.646Z,6.30
2022-09-25T11:58:42.323Z,6.40
2022-09-25T12:01:33.568Z,6.50
2022-09-25T12:04:41.778Z,6.90
2022-09-25T12:07:40.546Z,6.60
2022-09-25T12:10:42.227Z,6.70
2022-09-25T12:13:24.478Z,6.20
2022-09-25T12:16:09.613Z,7.20
2022-09-25T12:19:14.865Z,6.80
2022-09-25T12:22:01.756Z,6.60
2022-09-25T12:24:48.236Z,6.60
2022-09-25T12:27:37.481Z,6.70
2022-09-25T12:30:19.519Z,6.70
2022-09-25T12:33:04.811Z,7.10
2022-09-25T12:35:44.609Z,6.30
2022-09-25T12:38:31.065Z,6.40
2022-09-25T12:41:11.119Z,6.40
2022-09-25T12:43:49.555Z,6.00
2022-09-25T12:46:31.434Z,6.00
2022-09-25T12:49:13.772Z,5.30
2022-09-25T12:51:51.796Z,6.60
2022-09-25T12:54:32.810Z,6.30
2022-09-25T12:57:17.104Z,5.70
2022-09-25T12:59:54.714Z,6.00
2022-09-25T13:02:34.789Z,5.90
2022-09-25T13:05:18.153Z,6.80
2022-09-25T13:08:01.145Z,7.00
2022-09-25T13:10:40.475Z,6.10
2022-09-25T13:13:20.297Z,6.40
2022-09-25T13:18:30.653Z,6.00
2022-09-25T13:21:28.220Z,6.80
2022-09-25T13:26:44.052Z,6.30
2022-09-25T13:29:28.400Z,6.50
2022-09-25T13:32:17.126Z,6.40
2022-09-25T13:34:57.446Z,7.50
2022-09-25T13:37:37.686Z,7.70
2022-09-25T13:40:38.525Z,7.10
2022-09-25T13:43:24.521Z,7.10
2022-09-25T13:46:34.384Z,7.70
2022-09-25T13:49:36.992Z,7.30
2022-09-25T13:55:21.701Z,8.00
2022-09-25T13:58:17.908Z,7.30
2022-09-25T14:01:01.430Z,7.10
2022-09-25T14:03:42.086Z,7.80
2022-09-25T14:06:19.744Z,7.60
2022-09-25T14:08:56.877Z,7.10
2022-09-25T14:11:34.555Z,7.80
2022-09-25T14:14:13.862Z,7.00
2022-09-25T14:16:53.065Z,7.40
2022-09-25T14:19:29.447Z,7.10
2022-09-25T14:22:04.845Z,6.60
2022-09-25T14:24:46.992Z,7.20
2022-09-25T14:27:30.882Z,7.70
2022-09-25T14:30:14.260Z,7.10
2022-09-25T14:33:02.591Z,7.50
2022-09-25T14:35:41.804Z,6.50
2022-09-25T14:41:35.893Z,7.40
2022-09-25T14:46:54.484Z,6.60
2022-09-25T14:49:32.591Z,6.50
2022-09-25T14:52:12.690Z,6.90
2022-09-25T14:54:51.740Z,5.90
2022-09-25T14:57:29.782Z,6.60
2022-09-25T15:00:07.738Z,6.60
2022-09-25T15:02:45.929Z,6.80
2022-09-25T15:05:33.975Z,6.70
2022-09-25T15:11:12.328Z,6.40
2022-09-25T15:13:49.951Z,7.00
2022-09-25T15:16:44.366Z,7.10
2022-09-25T15:19:22.847Z,7.00
2022-09-25T15:21:57.579Z,7.10
2022-09-25T15:24:36.197Z,6.80
2022-09-25T15:27:10.157Z,6.80
2022-09-25T15:29:48.020Z,6.80
2022-09-25T15:32:25.811Z,7.40
2022-09-25T15:35:18.712Z,6.70
2022-09-25T15:38:03.537Z,6.80
2022-09-25T15:40:38.608Z,6.70
2022-09-25T15:43:16.634Z,7.00
2022-09-25T15:45:58.268Z,7.00
2022-09-25T15:48:36.940Z,7.20
2022-09-25T15:51:20.171Z,7.60
2022-09-25T15:53:57.174Z,7.00
2022-09-25T15:56:35.268Z,7.00
2022-09-25T15:59:21.817Z,7.50
2022-09-25T16:02:16.574Z,7.10
2022-09-25T16:04:53.586Z,7.40
2022-09-25T16:07:30.863Z,7.30
2022-09-25T16:10:08.539Z,7.70
2022-09-25T16:12:48.019Z,8.00
2022-09-25T16:15:49.451Z,7.80
2022-09-25T16:18:39.753Z,8.20
2022-09-25T16:21:19.933Z,8.70
2022-09-25T16:23:59.512Z,8.50
2022-09-25T16:26:40.034Z,9.30
2022-09-25T16:29:23.802Z,8.60
2022-09-25T16:32:02.377Z,9.00
2022-09-25T16:34:39.299Z,9.00
2022-09-25T16:40:21.552Z,9.30
2022-09-25T16:42:57.248Z,9.50
2022-09-25T16:45:34.491Z,9.00
2022-09-25T16:48:36.887Z,9.00
2022-09-25T16:51:24.563Z,8.50
2022-09-25T16:53:59.651Z,9.50
2022-09-25T16:56:35.103Z,9.40
2022-09-25T16:59:19.805Z,9.90
2022-09-25T17:01:56.454Z,9.80
2022-09-25T17:04:39.078Z,9.30
2022-09-25T17:07:15.321Z,10.10
2022-09-25T17:09:48.966Z,10.30
2022-09-25T17:12:24.781Z,10.20
2022-09-25T17:14:59.643Z,9.60
2022-09-25T17:17:33.461Z,10.50
2022-09-25T17:20:08.344Z,10.60
2022-09-25T17:22:43.782Z,10.30
2022-09-25T17:25:24.714Z,11.10
2022-09-25T17:28:00.397Z,12.00
2022-09-25T17:30:36.927Z,11.50
2022-09-25T17:33:18.240Z,10.10
2022-09-25T17:35:56.605Z,10.60
2022-09-25T17:38:32.610Z,10.60
2022-09-25T17:41:07.696Z,10.10
2022-09-25T17:43:48.126Z,11.20
2022-09-25T17:46:23.989Z,11.70
2022-09-25T17:48:57.970Z,11.10
2022-09-25T17:51:31.912Z,11.10
2022-09-25T17:54:09.710Z,10.50
2022-09-25T17:56:45.722Z,10.80
2022-09-25T17:59:20.895Z,11.10
2022-09-25T18:02:00.374Z,10.20
2022-09-25T18:04:35.551Z,9.50
2022-09-25T18:07:22.160Z,10.20
2022-09-25T18:09:56.296Z,9.60
2022-09-25T18:12:29.981Z,10.40
2022-09-25T18:15:03.743Z,10.50
2022-09-25T18:17:40.288Z,10.60
2022-09-25T18:20:35.104Z,10.60
2022-09-25T18:23:09.438Z,10.50
2022-09-25T18:25:44.892Z,11.70
2022-09-25T18:28:22.190Z,10.70
2022-09-25T18:30:59.860Z,11.20
2022-09-25T18:33:39.358Z,10.50
2022-09-25T18:36:14.454Z,11.40
2022-09-25T18:38:47.762Z,10.80
2022-09-25T18:41:21.441Z,12.80
2022-09-25T18:43:56.175Z,12.50
2022-09-25T18:46:33.747Z,11.90
2022-09-25T18:49:09.012Z,13.50
2022-09-25T18:51:46.281Z,13.50
2022-09-25T18:54:21.100Z,13.70
2022-09-25T18:56:55.314Z,13.80
2022-09-25T18:59:31.421Z,13.00
2022-09-25T19:02:05.554Z,14.40
2022-09-25T19:04:40.456Z,14.10
2022-09-25T19:07:14.423Z,14.50
2022-09-25T19:09:49.503Z,14.20
2022-09-25T19:12:24.064Z,13.50
2022-09-25T19:14:59.858Z,14.30
2022-09-25T19:17:38.739Z,14.30
2022-09-25T19:20:13.764Z,14.70
2022-09-25T19:22:47.740Z,14.90
2022-09-25T19:25:22.645Z,14.80
2022-09-25T19:27:57.775Z,14.10
2022-09-25T19:30:31.476Z,14.60
2022-09-25T19:33:06.793Z,15.60
2022-09-25T19:35:40.799Z,14.60
2022-09-25T19:38:15.367Z,14.70
2022-09-25T19:40:49.485Z,14.70
2022-09-25T19:43:24.453Z,15.50
2022-09-25T19:46:00.544Z,13.80
2022-09-25T19:48:35.977Z,13.90
2022-09-25T19:51:10.347Z,13.10
2022-09-25T19:53:46.626Z,12.80
2022-09-25T19:56:22.124Z,13.60
2022-09-25T19:58:55.990Z,13.50
2022-09-25T20:01:30.810Z,14.80
2022-09-25T20:04:08.368Z,14.80
2022-09-25T20:06:43.120Z,15.60
2022-09-25T20:09:29.345Z,14.50
2022-09-25T20:12:08.669Z,14.90
2022-09-25T20:14:49.269Z,15.50
2022-09-25T20:17:30.327Z,15.90
2022-09-25T20:20:05.353Z,15.40
2022-09-25T20:22:50.459Z,15.00
2022-09-25T20:25:28.291Z,15.00
2022-09-25T20:28:02.117Z,15.70
2022-09-25T20:30:38.496Z,15.60
2022-09-25T20:33:12.749Z,16.10
2022-09-25T20:35:47.434Z,16.40
2022-09-25T20:38:20.958Z,18.30
2022-09-25T20:40:54.684Z,17.60
2022-09-25T20:43:28.429Z,17.60
2022-09-25T20:46:04.417Z,16.50
2022-09-25T20:48:39.994Z,17.20
2022-09-25T20:51:19.032Z,17.20
2022-09-25T20:53:56.319Z,16.70
2022-09-25T20:56:31.271Z,17.30
2022-09-25T20:59:05.601Z,18.70
2022-09-25T21:01:41.879Z,20.40
2022-09-25T21:04:18.467Z,22.70
2022-09-25T21:06:51.917Z,20.60
2022-09-25T21:09:27.243Z,23.40
2022-09-25T21:12:06.509Z,21.50
2022-09-25T21:14:40.165Z,24.30
2022-09-25T21:17:14.026Z,22.90
2022-09-25T21:19:47.553Z,23.10
2022-09-25T21:22:21.503Z,22.80
2022-09-25T21:24:55.221Z,23.10
2022-09-25T21:27:30.967Z,21.80
2022-09-25T21:30:04.899Z,22.70
2022-09-25T21:32:38.643Z,22.00
2022-09-25T21:35:13.181Z,22.70
2022-09-25T21:37:47.577Z,23.50
2022-09-25T21:40:21.696Z,23.60
2022-09-25T21:42:56.201Z,23.30
2022-09-25T21:45:29.671Z,23.00
2022-09-25T21:48:03.507Z,23.20
2022-09-25T21:50:36.860Z,22.30
2022-09-25T21:53:10.215Z,22.90
2022-09-25T21:55:43.834Z,21.70
2022-09-25T21:58:17.732Z,22.30
2022-09-25T22:00:51.366Z,21.80
2022-09-25T22:03:25.171Z,22.10
2022-09-25T22:06:03.169Z,22.50
2022-09-25T22:08:39.227Z,23.00
2022-09-25T22:11:13.595Z,21.40
2022-09-25T22:13:48.610Z,20.60
2022-09-25T22:16:23.708Z,20.00
2022-09-25T22:18:58.607Z,21.30
2022-09-25T22:21:35.877Z,21.40
2022-09-25T22:24:10.440Z,21.20
2022-09-25T22:26:47.501Z,21.00
2022-09-25T22:29:22.199Z,21.50
2022-09-25T22:31:55.762Z,20.60
2022-09-25T22:34:30.402Z,21.10
2022-09-25T22:37:03.945Z,19.50
2022-09-25T22:39:37.591Z,19.70
2022-09-25T22:42:11.004Z,19.30
2022-09-25T22:44:44.238Z,20.70
2022-09-25T22:47:17.977Z,20.40
2022-09-25T22:49:51.703Z,19.30
2022-09-25T22:52:25.167Z,20.40
2022-09-25T22:54:58.719Z,20.90
2022-09-25T22:57:39.157Z,20.50
2022-09-25T23:00:15.075Z,20.40
2022-09-25T23:02:48.226Z,18.90
2022-09-25T23:05:21.553Z,18.80
2022-09-25T23:07:55.353Z,18.60
2022-09-25T23:10:38.841Z,19.20
2022-09-25T23:13:22.239Z,18.70
2022-09-25T23:15:55.580Z,20.00
2022-09-25T23:18:29.321Z,19.50
2022-09-25T23:21:02.801Z,19.70
2022-09-25T23:23:36.131Z,19.90
2022-09-25T23:26:10.513Z,19.50
2022-09-25T23:28:44.629Z,19.30
2022-09-25T23:31:19.308Z,18.40
2022-09-25T23:33:53.316Z,18.20
2022-09-25T23:36:27.862Z,17.30
2022-09-25T23:39:02.463Z,18.40
2022-09-25T23:41:37.370Z,18.40
2022-09-25T23:44:12.487Z,18.50
2022-09-25T23:46:47.196Z,19.30
2022-09-25T23:49:21.208Z,17.80
2022-09-25T23:51:54.722Z,18.80
2022-09-25T23:54:28.346Z,18.70
2022-09-25T23:57:01.746Z,17.90
2022-09-25T23:59:35.647Z,21.80
